sensor_id;sensor_type;location;lat;lon;timestamp;temperature;humidity
52397;DHT22;38322;53.108;6.308;2023-04-03T05:03:12;-1.00;99.90
52397;DHT22;38322;53.108;6.308;2023-04-03T05:05:38;-1.00;99.90
52397;DHT22;38322;53.108;6.308;2023-04-03T05:08:04;-1.00;99.90
52397;DHT22;38322;53.108;6.308;2023-04-03T05:10:30;-1.00;99.90
52397;DHT22;38322;53.108;6.308;2023-04-03T05:12:57;-1.00;99.90
52397;DHT22;38322;53.108;6.308;2023-04-03T05:15:23;-1.00;99.90
52397;DHT22;38322;53.108;6.308;2023-04-03T05:17:49;-1.00;99.90
52397;DHT22;38322;53.108;6.308;2023-04-03T05:20:15;-1.00;99.90
52397;DHT22;38322;53.108;6.308;2023-04-03T05:22:41;-1.00;99.90
52397;DHT22;38322;53.108;6.308;2023-04-03T05:25:07;-1.00;99.90
52397;DHT22;38322;53.108;6.308;2023-04-03T05:27:33;-1.00;99.90
52397;DHT22;38322;53.108;6.308;2023-04-03T05:29:59;-0.90;99.90
52397;DHT22;38322;53.108;6.308;2023-04-03T05:32:26;-0.90;99.90
52397;DHT22;38322;53.108;6.308;2023-04-03T05:34:53;-0.90;99.90
52397;DHT22;38322;53.108;6.308;2023-04-03T05:37:19;-0.80;99.90
52397;DHT22;38322;53.108;6.308;2023-04-03T05:39:46;-0.70;99.90
52397;DHT22;38322;53.108;6.308;2023-04-03T05:42:12;-0.60;99.90
52397;DHT22;38322;53.108;6.308;2023-04-03T05:44:38;-0.50;99.90
52397;DHT22;38322;53.108;6.308;2023-04-03T05:47:04;-0.40;99.90
52397;DHT22;38322;53.108;6.308;2023-04-03T05:49:30;-0.40;99.90
52397;DHT22;38322;53.108;6.308;2023-04-03T05:51:56;-0.30;99.90
52397;DHT22;38322;53.108;6.308;2023-04-03T05:54:25;-0.20;99.90
52397;DHT22;38322;53.108;6.308;2023-04-03T05:56:52;-0.10;99.90
52397;DHT22;38322;53.108;6.308;2023-04-03T05:59:19;-0.10;99.90
52397;DHT22;38322;53.108;6.308;2023-04-03T06:01:45;0.00;99.90
52397;DHT22;38322;53.108;6.308;2023-04-03T06:04:12;0.10;99.90
52397;DHT22;38322;53.108;6.308;2023-04-03T06:06:47;0.20;99.90
52397;DHT22;38322;53.108;6.308;2023-04-03T06:09:15;0.30;99.90
52397;DHT22;38322;53.108;6.308;2023-04-03T06:11:42;0.30;99.90
52397;DHT22;38322;53.108;6.308;2023-04-03T06:14:09;0.40;99.90
52397;DHT22;38322;53.108;6.308;2023-04-03T06:16:35;0.40;99.90
52397;DHT22;38322;53.108;6.308;2023-04-03T06:19:01;0.60;99.90
52397;DHT22;38322;53.108;6.308;2023-04-03T06:21:26;0.60;99.90
52397;DHT22;38322;53.108;6.308;2023-04-03T06:23:52;0.70;99.90
52397;DHT22;38322;53.108;6.308;2023-04-03T06:26:18;0.80;99.90
52397;DHT22;38322;53.108;6.308;2023-04-03T06:28:44;0.90;99.90
52397;DHT22;38322;53.108;6.308;2023-04-03T06:31:10;1.00;99.90
52397;DHT22;38322;53.108;6.308;2023-04-03T06:33:36;1.20;99.90
52397;DHT22;38322;53.108;6.308;2023-04-03T06:36:04;1.20;99.90
52397;DHT22;38322;53.108;6.308;2023-04-03T06:38:31;1.30;99.90
52397;DHT22;38322;53.108;6.308;2023-04-03T06:40:57;1.30;99.90
52397;DHT22;38322;53.108;6.308;2023-04-03T06:43:23;1.50;99.90
52397;DHT22;38322;53.108;6.308;2023-04-03T06:45:50;1.60;99.90
52397;DHT22;38322;53.108;6.308;2023-04-03T06:48:16;1.70;99.90
52397;DHT22;38322;53.108;6.308;2023-04-03T06:50:42;1.80;99.90
52397;DHT22;38322;53.108;6.308;2023-04-03T06:53:08;1.90;99.90
52397;DHT22;38322;53.108;6.308;2023-04-03T06:55:34;2.00;99.90
52397;DHT22;38322;53.108;6.308;2023-04-03T06:58:00;2.20;99.90
52397;DHT22;38322;53.108;6.308;2023-04-03T07:00:26;2.40;99.90
52397;DHT22;38322;53.108;6.308;2023-04-03T07:02:51;2.40;99.90
52397;DHT22;38322;53.108;6.308;2023-04-03T07:05:18;2.40;99.90
52397;DHT22;38322;53.108;6.308;2023-04-03T07:07:44;2.50;99.90
52397;DHT22;38322;53.108;6.308;2023-04-03T07:10:10;2.60;99.90
52397;DHT22;38322;53.108;6.308;2023-04-03T07:12:37;2.60;99.90
52397;DHT22;38322;53.108;6.308;2023-04-03T07:15:05;2.60;99.90
52397;DHT22;38322;53.108;6.308;2023-04-03T07:17:31;2.60;99.90
52397;DHT22;38322;53.108;6.308;2023-04-03T07:19:57;2.70;99.90
52397;DHT22;38322;53.108;6.308;2023-04-03T07:22:23;2.90;99.90
52397;DHT22;38322;53.108;6.308;2023-04-03T07:24:49;2.90;99.90
52397;DHT22;38322;53.108;6.308;2023-04-03T07:27:15;3.00;99.90
52397;DHT22;38322;53.108;6.308;2023-04-03T07:29:41;3.10;99.90
52397;DHT22;38322;53.108;6.308;2023-04-03T07:32:06;3.10;99.90
52397;DHT22;38322;53.108;6.308;2023-04-03T07:34:32;3.30;99.90
52397;DHT22;38322;53.108;6.308;2023-04-03T07:36:59;3.30;99.90
52397;DHT22;38322;53.108;6.308;2023-04-03T07:39:25;3.50;99.90
52397;DHT22;38322;53.108;6.308;2023-04-03T07:41:51;3.50;99.90
52397;DHT22;38322;53.108;6.308;2023-04-03T07:44:18;3.60;99.90
52397;DHT22;38322;53.108;6.308;2023-04-03T07:46:43;3.60;99.90
52397;DHT22;38322;53.108;6.308;2023-04-03T07:49:09;3.70;99.90
52397;DHT22;38322;53.108;6.308;2023-04-03T07:51:36;3.80;99.90
52397;DHT22;38322;53.108;6.308;2023-04-03T07:54:02;3.90;99.90
52397;DHT22;38322;53.108;6.308;2023-04-03T07:56:29;3.90;99.90
52397;DHT22;38322;53.108;6.308;2023-04-03T07:58:55;4.00;99.90
52397;DHT22;38322;53.108;6.308;2023-04-03T08:01:21;4.00;99.90
52397;DHT22;38322;53.108;6.308;2023-04-03T08:03:47;4.10;99.90
52397;DHT22;38322;53.108;6.308;2023-04-03T08:06:13;4.10;99.90
52397;DHT22;38322;53.108;6.308;2023-04-03T08:08:40;4.10;99.90
52397;DHT22;38322;53.108;6.308;2023-04-03T08:11:06;4.30;99.90
52397;DHT22;38322;53.108;6.308;2023-04-03T08:13:34;4.40;99.90
52397;DHT22;38322;53.108;6.308;2023-04-03T08:16:09;4.40;99.90
52397;DHT22;38322;53.108;6.308;2023-04-03T08:18:35;4.40;99.90
52397;DHT22;38322;53.108;6.308;2023-04-03T08:21:05;4.50;99.90
52397;DHT22;38322;53.108;6.308;2023-04-03T08:23:31;4.60;99.90
52397;DHT22;38322;53.108;6.308;2023-04-03T08:25:57;4.70;99.90
52397;DHT22;38322;53.108;6.308;2023-04-03T08:28:23;4.80;99.90
52397;DHT22;38322;53.108;6.308;2023-04-03T08:30:48;4.90;99.90
52397;DHT22;38322;53.108;6.308;2023-04-03T08:33:14;4.90;99.90
52397;DHT22;38322;53.108;6.308;2023-04-03T08:35:41;4.80;99.90
52397;DHT22;38322;53.108;6.308;2023-04-03T08:38:08;4.90;99.90
52397;DHT22;38322;53.108;6.308;2023-04-03T08:40:34;4.90;99.90
52397;DHT22;38322;53.108;6.308;2023-04-03T08:43:26;5.00;99.90
52397;DHT22;38322;53.108;6.308;2023-04-03T08:45:57;5.00;99.90
52397;DHT22;38322;53.108;6.308;2023-04-03T08:48:34;5.10;99.90
52397;DHT22;38322;53.108;6.308;2023-04-03T08:51:03;5.00;99.90
52397;DHT22;38322;53.108;6.308;2023-04-03T08:53:34;5.10;99.90
52397;DHT22;38322;53.108;6.308;2023-04-03T08:56:09;5.10;99.90
52397;DHT22;38322;53.108;6.308;2023-04-03T09:01:33;5.30;99.90
52397;DHT22;38322;53.108;6.308;2023-04-03T09:04:01;5.30;99.90
52397;DHT22;38322;53.108;6.308;2023-04-03T09:06:31;5.40;99.90
52397;DHT22;38322;53.108;6.308;2023-04-03T09:11:47;5.50;99.90
52397;DHT22;38322;53.108;6.308;2023-04-03T09:14:39;5.50;99.90
52397;DHT22;38322;53.108;6.308;2023-04-03T09:17:19;5.60;99.90
52397;DHT22;38322;53.108;6.308;2023-04-03T09:20:02;5.80;99.90
52397;DHT22;38322;53.108;6.308;2023-04-03T09:22:37;5.90;99.90
52397;DHT22;38322;53.108;6.308;2023-04-03T09:25:13;6.00;99.90
52397;DHT22;38322;53.108;6.308;2023-04-03T09:27:41;6.10;99.90
52397;DHT22;38322;53.108;6.308;2023-04-03T09:30:13;6.00;99.90
52397;DHT22;38322;53.108;6.308;2023-04-03T09:32:40;6.10;99.90
52397;DHT22;38322;53.108;6.308;2023-04-03T09:35:25;6.00;99.90
52397;DHT22;38322;53.108;6.308;2023-04-03T09:37:53;6.10;99.90
52397;DHT22;38322;53.108;6.308;2023-04-03T09:43:01;6.40;99.90
52397;DHT22;38322;53.108;6.308;2023-04-03T09:45:31;6.40;99.90
52397;DHT22;38322;53.108;6.308;2023-04-03T09:50:34;6.30;99.90
52397;DHT22;38322;53.108;6.308;2023-04-03T09:53:06;6.40;99.90
52397;DHT22;38322;53.108;6.308;2023-04-03T09:55:33;6.50;99.90
52397;DHT22;38322;53.108;6.308;2023-04-03T09:58:24;6.60;99.90
52397;DHT22;38322;53.108;6.308;2023-04-03T10:00:56;6.50;99.90
52397;DHT22;38322;53.108;6.308;2023-04-03T10:03:27;6.50;99.90
52397;DHT22;38322;53.108;6.308;2023-04-03T10:05:53;6.50;99.90
52397;DHT22;38322;53.108;6.308;2023-04-03T10:08:25;6.60;99.90
52397;DHT22;38322;53.108;6.308;2023-04-03T10:11:08;6.60;99.90
52397;DHT22;38322;53.108;6.308;2023-04-03T10:13:35;6.70;99.90
52397;DHT22;38322;53.108;6.308;2023-04-03T10:16:13;6.70;99.90
52397;DHT22;38322;53.108;6.308;2023-04-03T10:18:45;6.80;99.90
52397;DHT22;38322;53.108;6.308;2023-04-03T10:23:59;6.90;99.90
52397;DHT22;38322;53.108;6.308;2023-04-03T10:29:15;7.10;99.90
52397;DHT22;38322;53.108;6.308;2023-04-03T10:32:15;7.20;99.90
52397;DHT22;38322;53.108;6.308;2023-04-03T10:34:47;7.20;99.90
52397;DHT22;38322;53.108;6.308;2023-04-03T10:37:25;7.30;99.90
52397;DHT22;38322;53.108;6.308;2023-04-03T10:42:39;7.40;99.90
52397;DHT22;38322;53.108;6.308;2023-04-03T10:53:52;7.40;99.90
52397;DHT22;38322;53.108;6.308;2023-04-03T10:56:25;7.40;99.90
52397;DHT22;38322;53.108;6.308;2023-04-03T10:58:54;7.50;99.90
52397;DHT22;38322;53.108;6.308;2023-04-03T11:01:30;7.60;99.90
52397;DHT22;38322;53.108;6.308;2023-04-03T11:03:58;7.70;99.90
52397;DHT22;38322;53.108;6.308;2023-04-03T11:06:31;7.60;99.20
52397;DHT22;38322;53.108;6.308;2023-04-03T11:09:02;7.60;99.90
52397;DHT22;38322;53.108;6.308;2023-04-03T11:11:33;7.50;98.70
52397;DHT22;38322;53.108;6.308;2023-04-03T11:14:05;7.60;99.40
52397;DHT22;38322;53.108;6.308;2023-04-03T11:16:41;7.70;99.90
52397;DHT22;38322;53.108;6.308;2023-04-03T11:19:22;7.80;99.00
52397;DHT22;38322;53.108;6.308;2023-04-03T11:21:57;7.80;97.80
52397;DHT22;38322;53.108;6.308;2023-04-03T11:24:30;7.70;95.30
52397;DHT22;38322;53.108;6.308;2023-04-03T11:26:59;7.70;97.20
52397;DHT22;38322;53.108;6.308;2023-04-03T11:29:31;7.80;99.10
52397;DHT22;38322;53.108;6.308;2023-04-03T11:34:56;8.00;99.90
52397;DHT22;38322;53.108;6.308;2023-04-03T11:39:57;8.00;98.60
52397;DHT22;38322;53.108;6.308;2023-04-03T11:42:36;8.00;99.20
52397;DHT22;38322;53.108;6.308;2023-04-03T11:47:51;8.30;99.90
52397;DHT22;38322;53.108;6.308;2023-04-03T12:05:55;8.00;97.10
52397;DHT22;38322;53.108;6.308;2023-04-03T12:13:40;7.90;97.30
52397;DHT22;38322;53.108;6.308;2023-04-03T12:16:26;8.00;97.50
52397;DHT22;38322;53.108;6.308;2023-04-03T12:24:00;8.60;99.40
52397;DHT22;38322;53.108;6.308;2023-04-03T12:26:39;8.60;99.30
52397;DHT22;38322;53.108;6.308;2023-04-03T12:29:21;8.70;99.60
52397;DHT22;38322;53.108;6.308;2023-04-03T12:32:26;8.50;96.70
52397;DHT22;38322;53.108;6.308;2023-04-03T12:35:10;8.40;97.50
52397;DHT22;38322;53.108;6.308;2023-04-03T12:40:27;8.30;97.90
52397;DHT22;38322;53.108;6.308;2023-04-03T12:46:04;8.70;98.80
52397;DHT22;38322;53.108;6.308;2023-04-03T12:48:55;8.70;99.00
52397;DHT22;38322;53.108;6.308;2023-04-03T12:54:02;9.00;99.40
52397;DHT22;38322;53.108;6.308;2023-04-03T12:56:31;9.00;99.30
52397;DHT22;38322;53.108;6.308;2023-04-03T13:01:42;8.60;95.90
52397;DHT22;38322;53.108;6.308;2023-04-03T13:04:10;8.50;96.20
52397;DHT22;38322;53.108;6.308;2023-04-03T13:12:01;8.40;95.40
52397;DHT22;38322;53.108;6.308;2023-04-03T13:14:28;8.40;95.60
52397;DHT22;38322;53.108;6.308;2023-04-03T13:19:25;8.50;96.20
52397;DHT22;38322;53.108;6.308;2023-04-03T13:24:22;8.70;96.50
52397;DHT22;38322;53.108;6.308;2023-04-03T13:26:48;8.60;95.60
52397;DHT22;38322;53.108;6.308;2023-04-03T13:29:25;8.70;96.20
52397;DHT22;38322;53.108;6.308;2023-04-03T13:31:54;8.70;95.90
52397;DHT22;38322;53.108;6.308;2023-04-03T13:34:22;8.70;96.20
52397;DHT22;38322;53.108;6.308;2023-04-03T13:41:46;8.70;95.60
52397;DHT22;38322;53.108;6.308;2023-04-03T13:46:49;8.70;95.80
52397;DHT22;38322;53.108;6.308;2023-04-03T13:49:22;8.70;94.30
52397;DHT22;38322;53.108;6.308;2023-04-03T13:54:25;8.90;94.80
52397;DHT22;38322;53.108;6.308;2023-04-03T13:56:54;8.90;93.60
52397;DHT22;38322;53.108;6.308;2023-04-03T13:59:24;8.80;95.40
52397;DHT22;38322;53.108;6.308;2023-04-03T14:04:31;9.00;96.30
52397;DHT22;38322;53.108;6.308;2023-04-03T14:06:57;8.80;95.10
52397;DHT22;38322;53.108;6.308;2023-04-03T14:09:25;8.90;95.90
52397;DHT22;38322;53.108;6.308;2023-04-03T14:11:54;8.80;94.30
52397;DHT22;38322;53.108;6.308;2023-04-03T14:14:23;8.80;94.30
52397;DHT22;38322;53.108;6.308;2023-04-03T14:16:55;8.90;94.80
52397;DHT22;38322;53.108;6.308;2023-04-03T14:19:24;8.80;94.90
52397;DHT22;38322;53.108;6.308;2023-04-03T14:21:51;8.70;94.90
52397;DHT22;38322;53.108;6.308;2023-04-03T14:24:19;8.80;95.70
52397;DHT22;38322;53.108;6.308;2023-04-03T14:29:13;8.70;95.30
52397;DHT22;38322;53.108;6.308;2023-04-03T14:31:40;8.70;95.40
52397;DHT22;38322;53.108;6.308;2023-04-03T14:34:07;8.80;95.50
52397;DHT22;38322;53.108;6.308;2023-04-03T14:36:33;8.80;95.60
52397;DHT22;38322;53.108;6.308;2023-04-03T14:43:53;8.70;93.40
52397;DHT22;38322;53.108;6.308;2023-04-03T14:46:28;8.70;94.70
52397;DHT22;38322;53.108;6.308;2023-04-03T14:48:54;8.70;93.90
52397;DHT22;38322;53.108;6.308;2023-04-03T14:51:20;8.70;93.50
52397;DHT22;38322;53.108;6.308;2023-04-03T14:53:46;8.60;94.70
52397;DHT22;38322;53.108;6.308;2023-04-03T14:56:16;8.60;94.20
52397;DHT22;38322;53.108;6.308;2023-04-03T14:58:43;8.70;95.40
52397;DHT22;38322;53.108;6.308;2023-04-03T15:01:11;8.60;95.30
52397;DHT22;38322;53.108;6.308;2023-04-03T15:03:39;8.70;95.60
52397;DHT22;38322;53.108;6.308;2023-04-03T15:06:05;8.60;95.50
52397;DHT22;38322;53.108;6.308;2023-04-03T15:08:31;8.60;95.60
52397;DHT22;38322;53.108;6.308;2023-04-03T15:10:58;8.60;96.60
52397;DHT22;38322;53.108;6.308;2023-04-03T15:13:24;8.60;96.40
52397;DHT22;38322;53.108;6.308;2023-04-03T15:15:51;8.70;97.00
52397;DHT22;38322;53.108;6.308;2023-04-03T15:18:23;8.60;96.80
52397;DHT22;38322;53.108;6.308;2023-04-03T15:20:52;8.40;96.60
52397;DHT22;38322;53.108;6.308;2023-04-03T15:23:18;8.30;96.90
52397;DHT22;38322;53.108;6.308;2023-04-03T15:25:47;8.30;96.80
52397;DHT22;38322;53.108;6.308;2023-04-03T15:28:22;8.40;96.90
52397;DHT22;38322;53.108;6.308;2023-04-03T15:30:48;8.30;97.40
52397;DHT22;38322;53.108;6.308;2023-04-03T15:33:14;8.30;96.90
52397;DHT22;38322;53.108;6.308;2023-04-03T15:35:41;8.20;97.00
52397;DHT22;38322;53.108;6.308;2023-04-03T15:38:08;8.20;98.40
52397;DHT22;38322;53.108;6.308;2023-04-03T15:40:34;8.20;96.10
52397;DHT22;38322;53.108;6.308;2023-04-03T15:43:00;8.10;97.30
52397;DHT22;38322;53.108;6.308;2023-04-03T15:45:29;8.10;98.50
52397;DHT22;38322;53.108;6.308;2023-04-03T15:47:56;8.10;99.20
52397;DHT22;38322;53.108;6.308;2023-04-03T15:50:22;8.10;99.30
52397;DHT22;38322;53.108;6.308;2023-04-03T15:52:50;8.00;99.90
52397;DHT22;38322;53.108;6.308;2023-04-03T15:55:21;8.00;99.90
52397;DHT22;38322;53.108;6.308;2023-04-03T15:57:47;8.00;99.90
52397;DHT22;38322;53.108;6.308;2023-04-03T16:00:14;8.00;99.90
52397;DHT22;38322;53.108;6.308;2023-04-03T16:02:41;8.10;99.90
52397;DHT22;38322;53.108;6.308;2023-04-03T16:05:08;8.10;99.90
52397;DHT22;38322;53.108;6.308;2023-04-03T16:07:34;8.00;99.90
52397;DHT22;38322;53.108;6.308;2023-04-03T16:10:02;8.00;99.90
52397;DHT22;38322;53.108;6.308;2023-04-03T16:12:27;8.00;99.90
52397;DHT22;38322;53.108;6.308;2023-04-03T16:14:53;7.90;99.90
52397;DHT22;38322;53.108;6.308;2023-04-03T16:17:19;7.80;99.80
52397;DHT22;38322;53.108;6.308;2023-04-03T16:19:45;7.80;98.60
52397;DHT22;38322;53.108;6.308;2023-04-03T16:24:37;7.70;98.20
52397;DHT22;38322;53.108;6.308;2023-04-03T16:27:04;7.80;98.40
52397;DHT22;38322;53.108;6.308;2023-04-03T16:29:30;7.80;98.40
52397;DHT22;38322;53.108;6.308;2023-04-03T16:31:56;7.70;98.40
52397;DHT22;38322;53.108;6.308;2023-04-03T16:34:23;7.80;98.80
52397;DHT22;38322;53.108;6.308;2023-04-03T16:36:51;7.70;98.80
52397;DHT22;38322;53.108;6.308;2023-04-03T16:41:44;7.60;99.90
52397;DHT22;38322;53.108;6.308;2023-04-03T16:44:10;7.50;99.90
52397;DHT22;38322;53.108;6.308;2023-04-03T16:46:36;7.40;99.90
52397;DHT22;38322;53.108;6.308;2023-04-03T16:49:03;7.30;99.90
52397;DHT22;38322;53.108;6.308;2023-04-03T16:51:29;7.30;99.90
52397;DHT22;38322;53.108;6.308;2023-04-03T16:53:55;7.20;99.90
52397;DHT22;38322;53.108;6.308;2023-04-03T16:56:21;7.10;99.90
52397;DHT22;38322;53.108;6.308;2023-04-03T16:58:47;7.00;99.90
52397;DHT22;38322;53.108;6.308;2023-04-03T17:01:16;6.90;99.90
52397;DHT22;38322;53.108;6.308;2023-04-03T17:03:43;7.00;99.90
52397;DHT22;38322;53.108;6.308;2023-04-03T17:08:42;6.70;99.90
52397;DHT22;38322;53.108;6.308;2023-04-03T17:11:08;6.70;99.90
52397;DHT22;38322;53.108;6.308;2023-04-03T17:13:34;6.60;99.90
52397;DHT22;38322;53.108;6.308;2023-04-03T17:16:02;6.60;99.90
52397;DHT22;38322;53.108;6.308;2023-04-03T17:18:31;6.50;99.90
52397;DHT22;38322;53.108;6.308;2023-04-03T17:20:57;6.40;99.90
52397;DHT22;38322;53.108;6.308;2023-04-03T17:23:25;6.40;99.90
52397;DHT22;38322;53.108;6.308;2023-04-03T17:25:51;6.30;99.90
52397;DHT22;38322;53.108;6.308;2023-04-03T17:28:20;6.20;99.90
52397;DHT22;38322;53.108;6.308;2023-04-03T17:30:47;6.10;99.90
52397;DHT22;38322;53.108;6.308;2023-04-03T17:33:13;6.10;99.90
52397;DHT22;38322;53.108;6.308;2023-04-03T17:35:39;6.10;99.90
52397;DHT22;38322;53.108;6.308;2023-04-03T17:38:04;5.90;99.90
52397;DHT22;38322;53.108;6.308;2023-04-03T17:40:30;5.90;99.90
52397;DHT22;38322;53.108;6.308;2023-04-03T17:42:56;5.70;99.90
52397;DHT22;38322;53.108;6.308;2023-04-03T17:45:22;5.60;99.90
52397;DHT22;38322;53.108;6.308;2023-04-03T17:47:51;5.60;99.90
52397;DHT22;38322;53.108;6.308;2023-04-03T17:50:17;5.50;99.90
52397;DHT22;38322;53.108;6.308;2023-04-03T17:52:43;5.40;99.90
52397;DHT22;38322;53.108;6.308;2023-04-03T17:55:09;5.30;99.90
52397;DHT22;38322;53.108;6.308;2023-04-03T17:57:35;5.30;99.90
52397;DHT22;38322;53.108;6.308;2023-04-03T18:00:01;5.20;99.90
52397;DHT22;38322;53.108;6.308;2023-04-03T18:02:29;5.10;99.90
52397;DHT22;38322;53.108;6.308;2023-04-03T18:04:55;5.00;99.90
52397;DHT22;38322;53.108;6.308;2023-04-03T18:07:21;5.00;99.90
52397;DHT22;38322;53.108;6.308;2023-04-03T18:09:48;4.90;99.90
52397;DHT22;38322;53.108;6.308;2023-04-03T18:12:15;4.80;99.90
52397;DHT22;38322;53.108;6.308;2023-04-03T18:14:41;4.70;99.90
52397;DHT22;38322;53.108;6.308;2023-04-03T18:17:07;4.60;99.90
52397;DHT22;38322;53.108;6.308;2023-04-03T18:19:33;4.60;99.90
52397;DHT22;38322;53.108;6.308;2023-04-03T18:22:03;4.50;99.90
52397;DHT22;38322;53.108;6.308;2023-04-03T18:24:32;4.50;99.90
52397;DHT22;38322;53.108;6.308;2023-04-03T18:27:03;4.40;99.90
52397;DHT22;38322;53.108;6.308;2023-04-03T18:29:33;4.30;99.90
52397;DHT22;38322;53.108;6.308;2023-04-03T18:32:01;4.20;99.90
52397;DHT22;38322;53.108;6.308;2023-04-03T18:34:29;4.20;99.90
52397;DHT22;38322;53.108;6.308;2023-04-03T18:36:55;4.00;99.90
52397;DHT22;38322;53.108;6.308;2023-04-03T18:39:21;4.00;99.90
52397;DHT22;38322;53.108;6.308;2023-04-03T18:41:48;4.00;99.90
52397;DHT22;38322;53.108;6.308;2023-04-03T18:44:18;3.80;99.90
52397;DHT22;38322;53.108;6.308;2023-04-03T18:46:45;3.80;99.90
52397;DHT22;38322;53.108;6.308;2023-04-03T18:49:11;3.80;99.90
52397;DHT22;38322;53.108;6.308;2023-04-03T18:51:38;3.70;99.90
52397;DHT22;38322;53.108;6.308;2023-04-03T18:54:04;3.70;99.90
52397;DHT22;38322;53.108;6.308;2023-04-03T18:56:30;3.70;99.90
52397;DHT22;38322;53.108;6.308;2023-04-03T18:58:56;3.60;99.90
52397;DHT22;38322;53.108;6.308;2023-04-03T19:01:22;3.60;99.90
52397;DHT22;38322;53.108;6.308;2023-04-03T19:03:48;3.50;99.90
52397;DHT22;38322;53.108;6.308;2023-04-03T19:06:15;3.40;99.90
52397;DHT22;38322;53.108;6.308;2023-04-03T19:08:40;3.40;99.90
52397;DHT22;38322;53.108;6.308;2023-04-03T19:11:06;3.40;99.90
52397;DHT22;38322;53.108;6.308;2023-04-03T19:13:32;3.30;99.90
52397;DHT22;38322;53.108;6.308;2023-04-03T19:15:59;3.30;99.90
52397;DHT22;38322;53.108;6.308;2023-04-03T19:18:26;3.20;99.90
52397;DHT22;38322;53.108;6.308;2023-04-03T19:20:54;3.20;99.90
52397;DHT22;38322;53.108;6.308;2023-04-03T19:23:21;3.10;99.90
52397;DHT22;38322;53.108;6.308;2023-04-03T19:25:58;3.10;99.90
52397;DHT22;38322;53.108;6.308;2023-04-03T19:28:24;3.00;99.90
52397;DHT22;38322;53.108;6.308;2023-04-03T19:30:50;3.00;99.90
52397;DHT22;38322;53.108;6.308;2023-04-03T19:33:18;3.00;99.90
52397;DHT22;38322;53.108;6.308;2023-04-03T19:35:44;2.90;99.90
52397;DHT22;38322;53.108;6.308;2023-04-03T19:38:10;2.90;99.90
52397;DHT22;38322;53.108;6.308;2023-04-03T19:40:36;2.80;99.90
52397;DHT22;38322;53.108;6.308;2023-04-03T19:43:03;2.70;99.90
52397;DHT22;38322;53.108;6.308;2023-04-03T19:45:30;2.70;99.90
52397;DHT22;38322;53.108;6.308;2023-04-03T19:47:56;2.70;99.90
52397;DHT22;38322;53.108;6.308;2023-04-03T19:50:26;2.60;99.90
52397;DHT22;38322;53.108;6.308;2023-04-03T19:52:51;2.60;99.90
52397;DHT22;38322;53.108;6.308;2023-04-03T19:55:17;2.60;99.90
52397;DHT22;38322;53.108;6.308;2023-04-03T19:57:43;2.50;99.90
52397;DHT22;38322;53.108;6.308;2023-04-03T20:00:10;2.50;99.90
